createdAt,value
2022-12-18T00:00:17.807Z,29.98
2022-12-18T00:02:48.889Z,32.28
2022-12-18T00:05:16.886Z,33.72
2022-12-18T00:07:46.685Z,32.60
2022-12-18T00:10:15.483Z,27.10
2022-12-18T00:12:43.387Z,29.25
2022-12-18T00:15:11.860Z,27.60
2022-12-18T00:17:39.354Z,31.23
2022-12-18T00:20:10.476Z,32.15
2022-12-18T00:22:39.253Z,29.52
2022-12-18T00:25:07.487Z,33.58
2022-12-18T00:27:35.131Z,26.25
2022-12-18T00:30:05.963Z,22.60
2022-12-18T00:32:38.766Z,21.40
2022-12-18T00:35:08.636Z,24.40
2022-12-18T00:37:36.730Z,27.17
2022-12-18T00:40:05.177Z,27.77
2022-12-18T00:42:51.441Z,26.27
2022-12-18T00:45:21.611Z,30.83
2022-12-18T00:47:49.157Z,28.58
2022-12-18T00:50:19.355Z,27.33
2022-12-18T00:52:47.077Z,26.38
2022-12-18T00:55:15.372Z,25.15
2022-12-18T00:57:44.064Z,26.45
2022-12-18T01:00:14.145Z,25.10
2022-12-18T01:02:42.126Z,22.52
2022-12-18T01:05:10.751Z,20.10
2022-12-18T01:07:42.017Z,21.40
2022-12-18T01:10:11.387Z,18.33
2022-12-18T01:12:39.197Z,17.20
2022-12-18T01:15:10.864Z,18.75
2022-12-18T01:17:38.674Z,15.50
2022-12-18T01:20:09.814Z,18.95
2022-12-18T01:22:37.747Z,16.02
2022-12-18T01:25:06.891Z,14.43
2022-12-18T01:27:35.872Z,17.02
2022-12-18T01:30:04.521Z,16.83
2022-12-18T01:32:33.270Z,11.23
2022-12-18T01:35:01.166Z,15.40
2022-12-18T01:37:28.618Z,14.18
2022-12-18T01:40:02.802Z,21.20
2022-12-18T01:42:31.875Z,15.90
2022-12-18T01:45:24.577Z,16.98
2022-12-18T01:48:08.296Z,17.05
2022-12-18T01:50:40.685Z,15.95
2022-12-18T01:53:15.063Z,14.88
2022-12-18T01:55:48.581Z,11.88
2022-12-18T01:58:24.554Z,16.50
2022-12-18T02:00:57.238Z,12.13
2022-12-18T02:03:28.451Z,14.85
2022-12-18T02:06:28.589Z,15.38
2022-12-18T02:09:15.265Z,18.65
2022-12-18T02:11:51.448Z,17.30
2022-12-18T02:14:57.816Z,15.98
2022-12-18T02:17:46.211Z,22.23
2022-12-18T02:20:26.181Z,17.95
2022-12-18T02:23:12.932Z,16.00
2022-12-18T02:26:00.233Z,17.77
2022-12-18T02:28:32.640Z,17.75
2022-12-18T02:31:04.948Z,18.88
2022-12-18T02:33:36.587Z,17.17
2022-12-18T02:36:07.456Z,15.20
2022-12-18T02:38:35.555Z,15.85
2022-12-18T02:41:03.700Z,13.05
2022-12-18T02:43:31.699Z,17.63
2022-12-18T02:46:00.663Z,17.58
2022-12-18T02:48:30.932Z,11.98
2022-12-18T02:51:04.950Z,16.75
2022-12-18T02:53:42.341Z,16.63
2022-12-18T02:56:32.379Z,18.42
2022-12-18T02:59:07.109Z,12.93
2022-12-18T03:01:56.169Z,16.38
2022-12-18T03:04:53.039Z,12.45
2022-12-18T03:07:23.858Z,18.52
2022-12-18T03:09:55.232Z,11.90
2022-12-18T03:12:53.124Z,15.63
2022-12-18T03:15:27.639Z,13.68
2022-12-18T03:18:00.389Z,12.23
2022-12-18T03:21:06.157Z,17.55
2022-12-18T03:23:54.530Z,16.15
2022-12-18T03:26:28.123Z,13.95
2022-12-18T03:28:58.547Z,13.55
2022-12-18T03:31:38.257Z,18.83
2022-12-18T03:34:11.138Z,17.33
2022-12-18T03:36:42.014Z,16.92
2022-12-18T03:39:11.788Z,19.02
2022-12-18T03:41:47.426Z,13.40
2022-12-18T03:44:27.473Z,15.20
2022-12-18T03:47:03.601Z,13.18
2022-12-18T03:49:36.545Z,16.92
2022-12-18T03:52:13.926Z,14.30
2022-12-18T03:54:50.872Z,12.68
2022-12-18T03:57:22.392Z,11.70
2022-12-18T03:59:54.417Z,15.40
2022-12-18T04:02:26.209Z,13.85
2022-12-18T04:04:58.571Z,16.10
2022-12-18T04:07:26.462Z,13.93
2022-12-18T04:09:59.278Z,14.75
2022-12-18T04:14:55.139Z,14.43
2022-12-18T04:17:32.138Z,15.55
2022-12-18T04:20:04.643Z,16.88
2022-12-18T04:22:41.392Z,13.23
2022-12-18T04:25:12.178Z,14.90
2022-12-18T04:27:39.926Z,12.07
2022-12-18T04:30:09.449Z,8.52
2022-12-18T04:32:37.363Z,6.82
2022-12-18T04:35:07.688Z,15.23
2022-12-18T04:37:35.554Z,9.93
2022-12-18T04:40:03.198Z,11.80
2022-12-18T04:42:31.350Z,15.52
2022-12-18T04:44:59.271Z,13.85
2022-12-18T04:47:27.642Z,11.43
2022-12-18T04:52:28.912Z,11.07
2022-12-18T04:54:56.952Z,12.52
2022-12-18T04:57:24.751Z,16.02
2022-12-18T04:59:52.411Z,12.95
2022-12-18T05:02:20.366Z,13.18
2022-12-18T05:04:50.018Z,10.30
2022-12-18T05:07:23.483Z,14.68
2022-12-18T05:09:53.843Z,14.38
2022-12-18T05:12:21.678Z,14.05
2022-12-18T05:14:49.959Z,11.00
2022-12-18T05:17:21.589Z,12.43
2022-12-18T05:19:53.662Z,14.48
2022-12-18T05:22:21.247Z,16.10
2022-12-18T05:24:48.790Z,12.65
2022-12-18T05:30:13.687Z,13.20
2022-12-18T05:32:47.499Z,14.07
2022-12-18T05:35:16.213Z,15.93
2022-12-18T05:37:44.084Z,17.20
2022-12-18T05:40:18.508Z,10.25
2022-12-18T05:42:45.768Z,10.30
2022-12-18T05:45:18.081Z,13.98
2022-12-18T05:47:45.870Z,16.30
2022-12-18T05:50:13.542Z,11.70
2022-12-18T05:52:42.416Z,15.38
2022-12-18T05:55:16.130Z,15.05
2022-12-18T05:57:43.970Z,11.15
2022-12-18T06:00:21.418Z,11.05
2022-12-18T06:02:49.574Z,14.13
2022-12-18T06:05:19.352Z,17.15
2022-12-18T06:07:47.597Z,16.05
2022-12-18T06:10:15.432Z,13.38
2022-12-18T06:12:46.841Z,15.73
2022-12-18T06:15:18.205Z,17.52
2022-12-18T06:17:45.902Z,16.80
2022-12-18T06:20:23.351Z,17.90
2022-12-18T06:22:53.536Z,12.93
2022-12-18T06:25:21.334Z,14.05
2022-12-18T06:27:52.382Z,13.35
2022-12-18T06:30:20.140Z,12.93
2022-12-18T06:32:50.552Z,13.13
2022-12-18T06:35:22.128Z,15.98
2022-12-18T06:37:50.456Z,13.45
2022-12-18T06:40:18.524Z,12.50
2022-12-18T06:42:49.130Z,16.98
2022-12-18T06:45:20.912Z,11.75
2022-12-18T06:47:55.911Z,20.05
2022-12-18T06:50:29.960Z,18.10
2022-12-18T06:52:58.147Z,15.70
2022-12-18T06:55:25.579Z,11.43
2022-12-18T06:57:56.840Z,16.75
2022-12-18T07:00:24.763Z,15.93
2022-12-18T07:02:52.627Z,15.00
2022-12-18T07:05:20.553Z,19.92
2022-12-18T07:07:59.189Z,14.10
2022-12-18T07:10:26.730Z,21.05
2022-12-18T07:12:55.621Z,20.30
2022-12-18T07:15:24.614Z,19.92
2022-12-18T07:17:52.567Z,23.17
2022-12-18T07:20:23.163Z,23.52
2022-12-18T07:22:56.032Z,20.05
2022-12-18T07:25:23.736Z,17.58
2022-12-18T07:27:51.242Z,13.60
2022-12-18T07:30:18.916Z,27.33
2022-12-18T07:32:46.769Z,21.88
2022-12-18T07:35:18.370Z,18.25
2022-12-18T07:37:53.421Z,21.45
2022-12-18T07:40:22.217Z,21.60
2022-12-18T07:42:52.728Z,26.58
2022-12-18T07:45:20.508Z,22.08
2022-12-18T07:47:48.043Z,21.70
2022-12-18T07:50:16.008Z,19.20
2022-12-18T07:52:46.105Z,20.98
2022-12-18T07:55:13.662Z,18.73
2022-12-18T07:57:51.445Z,23.38
2022-12-18T08:00:21.546Z,18.50
2022-12-18T08:02:53.388Z,21.60
2022-12-18T08:05:21.955Z,24.60
2022-12-18T08:07:49.642Z,26.02
2022-12-18T08:10:20.485Z,23.90
2022-12-18T08:13:01.400Z,21.25
2022-12-18T08:15:33.606Z,22.05
2022-12-18T08:18:01.612Z,24.63
2022-12-18T08:20:30.533Z,22.73
2022-12-18T08:22:59.670Z,24.38
2022-12-18T08:25:28.587Z,27.88
2022-12-18T08:27:57.566Z,21.23
2022-12-18T08:30:32.410Z,25.17
2022-12-18T08:32:59.763Z,26.73
2022-12-18T08:35:36.355Z,31.70
2022-12-18T08:38:15.532Z,26.98
2022-12-18T08:40:45.474Z,31.33
2022-12-18T08:43:33.766Z,22.98
2022-12-18T08:46:05.045Z,32.58
2022-12-18T08:48:35.222Z,35.03
2022-12-18T08:51:03.260Z,27.05
2022-12-18T08:53:35.459Z,27.75
2022-12-18T08:58:31.076Z,40.00
2022-12-18T09:01:06.350Z,31.75
2022-12-18T09:03:37.193Z,27.55
2022-12-18T09:06:12.179Z,30.45
2022-12-18T09:08:52.095Z,34.40
2022-12-18T09:11:24.190Z,29.15
2022-12-18T09:13:52.111Z,32.80
2022-12-18T09:16:20.829Z,29.73
2022-12-18T09:18:51.740Z,31.48
2022-12-18T09:21:27.011Z,31.67
2022-12-18T09:23:55.708Z,30.42
2022-12-18T09:26:23.534Z,30.00
2022-12-18T09:28:51.370Z,33.90
2022-12-18T09:31:22.932Z,34.22
2022-12-18T09:33:51.056Z,29.88
2022-12-18T09:36:20.750Z,34.17
2022-12-18T09:38:54.008Z,31.13
2022-12-18T09:41:27.300Z,37.92
2022-12-18T09:43:58.143Z,34.83
2022-12-18T09:46:33.513Z,30.23
2022-12-18T09:49:06.186Z,32.40
2022-12-18T09:51:43.037Z,31.40
2022-12-18T09:54:18.699Z,38.38
2022-12-18T09:56:46.500Z,34.03
2022-12-18T09:59:20.782Z,34.60
2022-12-18T10:01:49.913Z,34.83
2022-12-18T10:04:28.880Z,30.50
2022-12-18T10:07:09.126Z,34.03
2022-12-18T10:09:47.470Z,27.92
2022-12-18T10:12:23.659Z,28.98
2022-12-18T10:15:09.878Z,32.45
2022-12-18T10:17:57.082Z,30.02
2022-12-18T10:20:35.299Z,31.35
2022-12-18T10:23:24.540Z,25.15
2022-12-18T10:26:02.615Z,28.58
2022-12-18T10:28:38.174Z,28.35
2022-12-18T10:31:09.326Z,28.98
2022-12-18T10:33:40.039Z,30.60
2022-12-18T10:36:07.769Z,27.17
2022-12-18T10:42:29.661Z,24.02
2022-12-18T10:45:27.520Z,34.15
2022-12-18T10:47:54.907Z,33.08
2022-12-18T10:51:01.429Z,29.95
2022-12-18T10:53:26.306Z,24.40
2022-12-18T10:55:55.793Z,32.92
2022-12-18T10:58:26.632Z,29.30
2022-12-18T11:01:11.080Z,32.22
2022-12-18T11:03:47.758Z,37.28
2022-12-18T11:06:18.017Z,31.83
2022-12-18T11:09:12.211Z,31.05
2022-12-18T11:11:54.290Z,32.80
2022-12-18T11:14:53.320Z,32.42
2022-12-18T11:17:35.695Z,31.98
2022-12-18T11:20:08.238Z,37.38
2022-12-18T11:22:39.580Z,32.28
2022-12-18T11:25:32.213Z,35.38
2022-12-18T11:28:01.850Z,30.33
2022-12-18T11:30:36.438Z,35.97
2022-12-18T11:33:04.207Z,27.75
2022-12-18T11:35:40.628Z,35.47
2022-12-18T11:38:31.673Z,34.45
2022-12-18T11:41:27.289Z,32.80
2022-12-18T11:43:57.193Z,27.92
2022-12-18T11:46:39.670Z,30.67
2022-12-18T11:49:32.816Z,31.20
2022-12-18T11:52:02.192Z,39.42
2022-12-18T11:54:29.407Z,34.80
2022-12-18T11:57:03.529Z,32.55
2022-12-18T11:59:49.285Z,39.20
2022-12-18T12:02:22.669Z,31.80
2022-12-18T12:04:50.547Z,29.00
2022-12-18T12:10:51.310Z,34.53
2022-12-18T12:13:31.092Z,30.08
2022-12-18T12:16:01.532Z,40.42
2022-12-18T12:18:55.110Z,36.67
2022-12-18T12:21:30.494Z,34.75
2022-12-18T12:23:58.156Z,45.70
2022-12-18T12:26:31.713Z,41.03
2022-12-18T12:28:59.218Z,35.97
2022-12-18T12:31:29.998Z,34.60
2022-12-18T12:34:09.185Z,32.67
2022-12-18T12:36:49.035Z,29.90
2022-12-18T12:39:27.231Z,31.55
2022-12-18T12:42:13.780Z,32.08
2022-12-18T12:44:55.686Z,36.05
2022-12-18T12:47:27.638Z,32.05
2022-12-18T12:49:56.900Z,34.83
2022-12-18T12:52:34.300Z,31.27
2022-12-18T12:55:02.714Z,29.38
2022-12-18T12:57:37.344Z,34.67
2022-12-18T13:00:16.600Z,33.70
2022-12-18T13:03:04.311Z,32.40
2022-12-18T13:05:54.143Z,31.67
2022-12-18T13:08:28.533Z,32.40
2022-12-18T13:11:20.646Z,36.63
2022-12-18T13:13:53.197Z,32.22
2022-12-18T13:16:28.432Z,35.45
2022-12-18T13:19:05.832Z,23.50
2022-12-18T13:21:35.160Z,33.05
2022-12-18T13:24:31.698Z,31.08
2022-12-18T13:26:59.438Z,35.25
2022-12-18T13:29:44.099Z,34.75
2022-12-18T13:32:26.378Z,29.77
2022-12-18T13:35:13.938Z,56.55
2022-12-18T13:37:43.016Z,37.42
2022-12-18T13:40:32.414Z,36.27
2022-12-18T13:43:15.835Z,39.80
2022-12-18T13:45:47.338Z,35.55
2022-12-18T13:48:23.009Z,23.20
2022-12-18T13:50:51.620Z,34.15
2022-12-18T13:53:24.653Z,29.67
2022-12-18T13:55:53.476Z,26.58
2022-12-18T13:58:21.148Z,33.05
2022-12-18T14:00:48.406Z,35.28
2022-12-18T14:03:49.395Z,27.15
2022-12-18T14:06:18.386Z,34.60
2022-12-18T14:08:46.374Z,32.90
2022-12-18T14:14:11.351Z,36.08
2022-12-18T14:16:39.305Z,33.75
2022-12-18T14:19:15.280Z,32.42
2022-12-18T14:22:05.005Z,37.35
2022-12-18T14:24:32.367Z,26.55
2022-12-18T14:27:15.454Z,37.13
2022-12-18T14:29:51.543Z,35.00
2022-12-18T14:32:20.230Z,29.63
2022-12-18T14:34:49.115Z,26.58
2022-12-18T14:37:26.045Z,28.75
2022-12-18T14:40:07.134Z,33.08
2022-12-18T14:42:38.241Z,29.58
2022-12-18T14:45:24.443Z,31.05
2022-12-18T14:47:53.498Z,45.67
2022-12-18T14:50:21.259Z,26.63
2022-12-18T14:52:49.134Z,40.45
2022-12-18T14:55:17.804Z,33.05
2022-12-18T14:57:48.471Z,39.65
2022-12-18T15:00:22.516Z,48.78
2022-12-18T15:03:11.216Z,37.15
2022-12-18T15:05:41.454Z,40.65
2022-12-18T15:08:31.001Z,44.90
2022-12-18T15:11:03.277Z,38.35
2022-12-18T15:13:33.153Z,36.70
2022-12-18T15:16:04.273Z,40.75
2022-12-18T15:18:35.144Z,42.55
2022-12-18T15:21:10.254Z,45.63
2022-12-18T15:23:38.650Z,46.10
2022-12-18T15:26:11.437Z,44.42
2022-12-18T15:31:41.447Z,47.30
2022-12-18T15:34:27.510Z,51.92
2022-12-18T15:36:57.861Z,60.30
2022-12-18T15:39:53.315Z,52.30
2022-12-18T15:42:39.855Z,56.63
2022-12-18T15:45:07.804Z,52.20
2022-12-18T15:47:35.304Z,45.25
2022-12-18T15:50:03.991Z,51.03
2022-12-18T15:52:38.517Z,52.92
2022-12-18T15:58:21.332Z,42.42
2022-12-18T16:00:49.258Z,50.35
2022-12-18T16:03:16.927Z,45.55
2022-12-18T16:05:44.457Z,59.67
2022-12-18T16:08:14.945Z,51.38
2022-12-18T16:10:42.675Z,46.63
2022-12-18T16:13:13.489Z,46.47
2022-12-18T16:15:41.283Z,47.70
2022-12-18T16:18:13.194Z,48.90
2022-12-18T16:20:43.563Z,42.03
2022-12-18T16:23:10.994Z,43.13
2022-12-18T16:25:39.225Z,50.92
2022-12-18T16:28:09.035Z,43.15
2022-12-18T16:30:39.718Z,55.08
2022-12-18T16:33:07.499Z,41.15
2022-12-18T16:35:38.234Z,42.88
2022-12-18T16:38:08.422Z,40.42
2022-12-18T16:40:55.772Z,52.28
2022-12-18T16:43:35.246Z,47.08
2022-12-18T16:46:02.862Z,46.30
2022-12-18T16:48:54.499Z,53.33
2022-12-18T16:51:31.080Z,42.47
2022-12-18T16:53:58.921Z,43.45
2022-12-18T16:56:26.841Z,47.88
2022-12-18T16:58:57.740Z,53.63
2022-12-18T17:01:25.627Z,44.15
2022-12-18T17:03:56.626Z,52.78
2022-12-18T17:06:24.643Z,51.53
2022-12-18T17:08:58.905Z,52.60
2022-12-18T17:11:30.600Z,43.38
2022-12-18T17:13:58.239Z,40.33
2022-12-18T17:16:26.732Z,48.85
2022-12-18T17:18:54.965Z,41.55
2022-12-18T17:21:22.500Z,52.30
2022-12-18T17:23:49.839Z,39.97
2022-12-18T17:26:25.903Z,42.95
2022-12-18T17:28:53.526Z,50.00
2022-12-18T17:31:28.076Z,43.25
2022-12-18T17:33:56.430Z,41.78
2022-12-18T17:36:23.939Z,41.65
2022-12-18T17:38:57.347Z,38.25
2022-12-18T17:41:25.312Z,33.30
2022-12-18T17:43:56.204Z,50.17
2022-12-18T17:46:24.074Z,53.40
2022-12-18T17:48:51.762Z,46.10
2022-12-18T17:51:19.456Z,42.67
2022-12-18T17:53:46.810Z,58.55
2022-12-18T17:56:31.478Z,40.95
2022-12-18T17:58:58.957Z,44.85
2022-12-18T18:01:26.990Z,50.97
2022-12-18T18:07:09.055Z,42.53
2022-12-18T18:12:25.256Z,43.65
2022-12-18T18:14:52.934Z,33.72
2022-12-18T18:17:20.345Z,43.05
2022-12-18T18:19:53.552Z,40.88
2022-12-18T18:22:20.831Z,29.08
2022-12-18T18:24:50.372Z,34.28
2022-12-18T18:27:25.183Z,30.30
2022-12-18T18:29:52.964Z,36.42
2022-12-18T18:32:20.574Z,37.45
2022-12-18T18:37:42.597Z,32.50
2022-12-18T18:40:14.225Z,23.92
2022-12-18T18:42:41.742Z,29.77
2022-12-18T18:45:09.809Z,29.92
2022-12-18T18:47:37.549Z,31.30
2022-12-18T18:50:13.084Z,32.47
2022-12-18T18:52:40.856Z,42.33
2022-12-18T18:55:22.398Z,35.33
2022-12-18T18:57:53.408Z,29.67
2022-12-18T19:00:21.910Z,28.25
2022-12-18T19:02:49.783Z,34.05
2022-12-18T19:05:17.469Z,24.25
2022-12-18T19:07:45.467Z,25.70
2022-12-18T19:10:12.975Z,24.83
2022-12-18T19:12:58.912Z,22.00
2022-12-18T19:15:26.313Z,34.30
2022-12-18T19:17:54.072Z,22.15
2022-12-18T19:20:24.509Z,36.90
2022-12-18T19:22:55.647Z,39.83
2022-12-18T19:25:38.535Z,25.80
2022-12-18T19:28:21.884Z,24.95
2022-12-18T19:30:50.679Z,26.88
2022-12-18T19:33:41.652Z,32.03
2022-12-18T19:36:12.491Z,26.88
2022-12-18T19:38:42.739Z,25.73
2022-12-18T19:41:13.342Z,29.55
2022-12-18T19:43:41.357Z,29.23
2022-12-18T19:46:14.270Z,36.40
2022-12-18T19:48:42.162Z,34.63
2022-12-18T19:51:12.119Z,24.58
2022-12-18T19:53:39.634Z,33.50
2022-12-18T19:56:07.960Z,25.67
2022-12-18T19:58:35.256Z,16.83
2022-12-18T20:01:04.037Z,35.15
2022-12-18T20:03:34.478Z,21.02
2022-12-18T20:06:14.112Z,18.75
2022-12-18T20:08:41.782Z,20.50
2022-12-18T20:11:09.215Z,21.17
2022-12-18T20:13:39.800Z,18.10
2022-12-18T20:16:11.008Z,23.38
2022-12-18T20:18:39.157Z,17.50
2022-12-18T20:21:13.604Z,17.10
2022-12-18T20:23:44.243Z,17.05
2022-12-18T20:26:17.841Z,14.00
2022-12-18T20:28:48.554Z,20.02
2022-12-18T20:31:15.793Z,17.48
2022-12-18T20:33:52.198Z,22.30
2022-12-18T20:36:28.271Z,24.20
2022-12-18T20:39:01.540Z,27.90
2022-12-18T20:41:38.367Z,26.23
2022-12-18T20:44:22.321Z,22.05
2022-12-18T20:46:56.766Z,27.35
2022-12-18T20:49:25.215Z,21.58
2022-12-18T20:51:59.156Z,29.67
2022-12-18T20:54:29.485Z,25.40
2022-12-18T20:56:57.040Z,24.08
2022-12-18T20:59:25.574Z,18.08
2022-12-18T21:01:54.661Z,26.42
2022-12-18T21:04:26.941Z,21.75
2022-12-18T21:07:00.567Z,19.08
2022-12-18T21:09:33.701Z,23.00
2022-12-18T21:12:24.602Z,15.95
2022-12-18T21:14:52.108Z,32.28
2022-12-18T21:17:19.570Z,27.65
2022-12-18T21:19:47.099Z,20.55
2022-12-18T21:22:15.310Z,32.88
2022-12-18T21:24:42.662Z,35.85
2022-12-18T21:27:10.006Z,33.03
2022-12-18T21:29:45.838Z,29.83
2022-12-18T21:32:16.730Z,22.77
2022-12-18T21:34:48.328Z,27.98
2022-12-18T21:37:16.125Z,26.10
2022-12-18T21:39:46.600Z,29.83
2022-12-18T21:42:32.829Z,36.58
2022-12-18T21:45:00.014Z,43.60
2022-12-18T21:47:30.240Z,32.05
2022-12-18T21:50:03.671Z,23.90
2022-12-18T21:52:32.773Z,24.80
2022-12-18T21:55:09.637Z,23.92
2022-12-18T21:57:38.053Z,46.40
2022-12-18T22:00:22.691Z,36.88
2022-12-18T22:03:09.405Z,31.98
2022-12-18T22:05:40.377Z,26.30
2022-12-18T22:08:07.920Z,32.75
2022-12-18T22:10:35.844Z,22.23
2022-12-18T22:13:03.938Z,45.50
2022-12-18T22:15:31.232Z,26.70
2022-12-18T22:18:00.226Z,25.40
2022-12-18T22:20:29.783Z,36.72
2022-12-18T22:23:05.614Z,25.10
2022-12-18T22:25:34.267Z,25.83
2022-12-18T22:28:21.260Z,28.83
2022-12-18T22:30:48.589Z,20.33
2022-12-18T22:33:19.530Z,22.85
2022-12-18T22:35:47.163Z,32.92
2022-12-18T22:38:15.542Z,28.52
2022-12-18T22:40:47.726Z,24.77
2022-12-18T22:43:25.245Z,33.92
2022-12-18T22:45:52.809Z,24.83
2022-12-18T22:48:20.118Z,28.33
2022-12-18T22:50:47.418Z,31.80
2022-12-18T22:53:16.550Z,17.05
2022-12-18T22:55:44.255Z,19.10
2022-12-18T22:58:11.558Z,30.17
2022-12-18T23:00:39.285Z,32.53
2022-12-18T23:03:07.299Z,29.50
2022-12-18T23:05:34.808Z,15.60
2022-12-18T23:08:02.365Z,20.85
2022-12-18T23:10:35.817Z,27.52
2022-12-18T23:13:03.344Z,18.92
2022-12-18T23:15:30.681Z,31.05
2022-12-18T23:17:59.121Z,18.08
2022-12-18T23:20:27.374Z,30.27
2022-12-18T23:22:54.947Z,25.20
2022-12-18T23:25:22.610Z,21.80
2022-12-18T23:27:49.944Z,24.95
2022-12-18T23:30:18.521Z,26.23
2022-12-18T23:32:45.976Z,21.00
2022-12-18T23:35:14.257Z,18.90
2022-12-18T23:37:58.731Z,26.92
2022-12-18T23:40:26.654Z,20.90
2022-12-18T23:42:56.274Z,17.67
2022-12-18T23:45:23.668Z,20.15
2022-12-18T23:47:51.490Z,18.02
2022-12-18T23:50:24.017Z,16.25
2022-12-18T23:53:00.815Z,20.15
2022-12-18T23:55:32.923Z,17.55
2022-12-18T23:58:00.243Z,24.48
